Wolf Creek Pass, CO

11:33 AM MDT on October 21, 2014 (GMT -0600)
Top of Oak Brush Hill | Change Station
CLOSE
Current Station
Personal Weather Station
Location: Pagosa Springs, CO
Elevation: 8566 ft
Nearby Weather Stations

Elev 8566 ft 37.20 °N, 107.12 °W | Updated 23 seconds ago

Overcast
Overcast
48.0 °F
Feels Like 48 °F
N
2.0
Wind Variable Wind from NE

Today
High -- | Low -- °F
--% Chance of Precip.
Yesterday
High -- | Low -- °F
Precip. -- in
7:21 AM 6:21 PM
Waning Crescent, 5% visible
Pressure 30.41 in
Visibility 1.0 miles
Clouds Overcast 200 ft
Windchill 48 °F
Dew Point 42 °F
Humidity 79%
Rainfall 0.00 in
Snow Depth 0 in , 0 in , 0 in
UV 2 out of 12
Pollen 2.90 out of 12
Air Quality Not available.
Flu Activity Sporadic
METAR KCPW 211717Z AUTO 21007KT 1SM BR OVC002 00/00 A3041 RMK AO2

More Conditions Fewer Conditions

Pressure 30.41 in
Visibility 1.0 miles
Clouds Overcast 200 ft
Windchill 48 °F
Dew Point 42 °F
Humidity 79%
Rainfall 0.00 in
Snow Depth 0 in , 0 in , 0 in
UV 2 out of 12
Pollen 2.90 out of 12
Air Quality Not available.
Flu Activity Sporadic
METAR KCPW 211717Z AUTO 21007KT 1SM BR OVC002 00/00 A3041 RMK AO2

More Conditions Fewer Conditions

10-Day Weather Forecast

Almanac

Astronomy

Oct. 21, 2014 Rise Set
Actual Time 7:21 AM MDT 6:21 PM MDT
Civil Twilight 6:54 AM MDT 6:48 PM MDT
Nautical Twilight 6:24 AM MDT 7:18 PM MDT
Astronomical Twilight 5:53 AM MDT 7:49 PM MDT
Moon 5:10 AM MDT 5:15 PM MDT
Length of Visible Light 11h 53m
Length of Day
11h 00m
Tomorrow will be 2m 15s shorter.
Waning Crescent, 5% of the Moon is Illuminated
Today
Waning Crescent
Oct 23
New
Oct 30
First Quarter
Nov 6
Full
Nov 14
Last Quarter

Today's Extremes

State Highs State Lows

Community

WunderPhotos

Upload Photos

1,763,730 photos uploaded!

Nearby

Snow Depth

Station Depth Elevation
Wolf Creek Summit 0 in 11000 ft
Upper San Juan 0 in 10130 ft
Middle Creek 0 in 11250 ft
Cumbres Trestle 0 in 10020 ft
Vallecito 0 in 10880 ft

Earthquake Activity

City Distance Mag. Time & Date
Trinidad, Colorado 104 miles 2.7 10:33 PM MDT
2014-10-20
Trinidad, Colorado 110 miles 2.5 10:01 PM MDT
2014-10-19
Minimum magnitude displayed is 2.5.

Coastal Water Temperatures

Place Temperature
No Stations Reporting

Nearby Weather Stations